Time;durP1;ratioP1;P1;durP2;ratioP2;P2;SDS_P1;SDS_P2;PMS_P1;PMS_P2;Temp;Humidity;BMP_temperature;BMP_pressure;BME280_temperature;BME280_humidity;BME280_pressure;Samples;Min_cycle;Max_cycle;Signal;HPM_P1;HPM_P2
2022/04/15 00:00:26;;;;;;;;;;;12.30;89.40;;;;;;8390542;28;19920;-73
2022/04/15 00:04:28;;;;;;;;;;;12.20;89.40;;;;;;8400222;28;19924;-74
2022/04/15 00:08:30;;;;;;;;;;;12.10;89.50;;;;;;8426242;28;19924;-73
2022/04/15 00:12:34;;;;;;;;;;;12.10;89.30;;;;;;8394846;28;19920;-73
2022/04/15 00:16:35;;;;;;;;;;;12.00;89.90;;;;;;8395760;28;19921;-73
2022/04/15 00:20:37;;;;;;;;;;;11.90;89.40;;;;;;8390815;28;19974;-74
2022/04/15 00:24:39;;;;;;;;;;;11.80;89.50;;;;;;8414800;28;19921;-73
2022/04/15 00:28:40;;;;;;;;;;;11.70;89.80;;;;;;8388939;28;19924;-73
2022/04/15 00:32:42;;;;;;;;;;;11.60;90.10;;;;;;8387358;28;19920;-74
2022/04/15 00:36:44;;;;;;;;;;;11.50;90.40;;;;;;8390894;28;20390;-73
2022/04/15 00:40:47;;;;;;;;;;;11.60;90.80;;;;;;8394682;28;19991;-73
2022/04/15 00:44:58;;;;;;;;;;;11.60;91.20;;;;;;8397940;28;19919;-73
2022/04/15 00:49:00;;;;;;;;;;;11.60;91.40;;;;;;8390083;28;19924;-73
2022/04/15 00:53:07;;;;;;;;;;;11.60;91.70;;;;;;8398744;28;20364;-74
2022/04/15 00:57:09;;;;;;;;;;;11.70;92.10;;;;;;8394321;28;19924;-74
2022/04/15 01:01:11;;;;;;;;;;;11.60;92.00;;;;;;8389780;28;20364;-73
2022/04/15 01:05:13;;;;;;;;;;;11.70;92.20;;;;;;8384071;28;19921;-73
2022/04/15 01:09:15;;;;;;;;;;;11.70;92.80;;;;;;8387632;28;19943;-73
2022/04/15 01:13:17;;;;;;;;;;;11.70;92.70;;;;;;8393849;28;19920;-74
2022/04/15 01:17:24;;;;;;;;;;;11.70;92.70;;;;;;8394053;28;20016;-73
2022/04/15 01:21:27;;;;;;;;;;;11.60;93.20;;;;;;8402694;28;19925;-73
2022/04/15 01:25:29;;;;;;;;;;;11.70;93.30;;;;;;8383343;28;19921;-74
2022/04/15 01:29:37;;;;;;;;;;;11.70;93.50;;;;;;8400361;28;20378;-73
2022/04/15 01:33:39;;;;;;;;;;;11.70;93.50;;;;;;8393864;28;20309;-73
2022/04/15 01:37:41;;;;;;;;;;;11.60;93.90;;;;;;8386441;28;20292;-73
2022/04/15 01:41:44;;;;;;;;;;;11.50;93.90;;;;;;8394020;28;19920;-74
2022/04/15 01:45:46;;;;;;;;;;;11.50;94.20;;;;;;8389580;28;20295;-73
2022/04/15 01:49:48;;;;;;;;;;;11.50;94.40;;;;;;8391490;28;19921;-73
2022/04/15 01:53:49;;;;;;;;;;;11.50;94.20;;;;;;8385929;28;19921;-73
2022/04/15 01:57:51;;;;;;;;;;;11.50;94.60;;;;;;8392940;28;19927;-73
2022/04/15 02:01:55;;;;;;;;;;;11.60;94.60;;;;;;8394746;28;19935;-74
2022/04/15 02:05:57;;;;;;;;;;;11.50;94.70;;;;;;8375786;28;19940;-73
2022/04/15 02:09:59;;;;;;;;;;;11.40;94.70;;;;;;8382477;28;19920;-73
2022/04/15 02:14:01;;;;;;;;;;;11.40;94.90;;;;;;8375147;28;19925;-74
2022/04/15 02:18:02;;;;;;;;;;;11.40;95.10;;;;;;8387483;28;19927;-73
2022/04/15 02:22:04;;;;;;;;;;;11.40;95.20;;;;;;8393109;28;19920;-74
2022/04/15 02:26:06;;;;;;;;;;;11.30;95.20;;;;;;8412033;28;19921;-73
2022/04/15 02:30:08;;;;;;;;;;;11.30;95.20;;;;;;8384835;28;19928;-74
2022/04/15 02:34:09;;;;;;;;;;;11.30;95.10;;;;;;8383915;28;19927;-74
2022/04/15 02:38:11;;;;;;;;;;;11.30;95.70;;;;;;8395413;28;19945;-73
2022/04/15 02:42:13;;;;;;;;;;;11.30;95.80;;;;;;8391336;28;20256;-74
2022/04/15 02:46:15;;;;;;;;;;;11.30;95.70;;;;;;8387385;28;19968;-74
2022/04/15 02:50:17;;;;;;;;;;;11.30;95.50;;;;;;8380212;28;19996;-73
2022/04/15 02:54:18;;;;;;;;;;;11.30;95.70;;;;;;8381819;28;19920;-73
2022/04/15 02:58:20;;;;;;;;;;;11.30;95.60;;;;;;8385205;28;19920;-73
2022/04/15 03:02:22;;;;;;;;;;;11.30;95.80;;;;;;8387901;28;19980;-74
2022/04/15 03:06:23;;;;;;;;;;;11.40;95.70;;;;;;8392945;28;19924;-74
2022/04/15 03:10:25;;;;;;;;;;;11.30;95.90;;;;;;8390559;28;20367;-73
2022/04/15 03:14:26;;;;;;;;;;;11.20;96.20;;;;;;8384612;28;19921;-74
2022/04/15 03:18:28;;;;;;;;;;;11.20;96.20;;;;;;8377713;28;19935;-74
2022/04/15 03:22:30;;;;;;;;;;;11.20;97.00;;;;;;8419383;28;20301;-74
2022/04/15 03:26:32;;;;;;;;;;;11.20;97.00;;;;;;8392307;28;19932;-73
2022/04/15 03:30:33;;;;;;;;;;;11.20;96.70;;;;;;8384166;28;19928;-73
2022/04/15 03:34:35;;;;;;;;;;;11.20;96.70;;;;;;8371027;28;19943;-73
2022/04/15 03:38:37;;;;;;;;;;;11.20;96.80;;;;;;8383066;28;19928;-73
2022/04/15 03:42:53;;;;;;;;;;;11.20;96.80;;;;;;8393263;28;19920;-73
2022/04/15 03:46:55;;;;;;;;;;;11.30;97.00;;;;;;8386657;28;20295;-73
2022/04/15 03:50:56;;;;;;;;;;;11.30;97.30;;;;;;8388372;28;19920;-73
2022/04/15 03:54:58;;;;;;;;;;;11.30;97.30;;;;;;8397476;28;20359;-74
2022/04/15 03:59:00;;;;;;;;;;;11.30;97.20;;;;;;8397433;28;19929;-73
2022/04/15 04:03:02;;;;;;;;;;;11.30;97.50;;;;;;8416018;28;19931;-73
2022/04/15 04:07:04;;;;;;;;;;;11.30;97.60;;;;;;8385810;28;20278;-74
2022/04/15 04:11:06;;;;;;;;;;;11.20;97.60;;;;;;8382743;28;19920;-73
2022/04/15 04:15:08;;;;;;;;;;;11.20;97.60;;;;;;8383492;28;19957;-73
2022/04/15 04:19:10;;;;;;;;;;;11.20;97.70;;;;;;8388150;28;20269;-73
2022/04/15 04:23:11;;;;;;;;;;;11.10;97.80;;;;;;8388198;28;19986;-73
2022/04/15 04:27:13;;;;;;;;;;;11.10;97.90;;;;;;8391199;28;20269;-74
2022/04/15 04:31:15;;;;;;;;;;;11.10;98.30;;;;;;8404377;28;20236;-74
2022/04/15 04:35:18;;;;;;;;;;;11.10;98.30;;;;;;8394136;28;19921;-74
2022/04/15 04:39:19;;;;;;;;;;;11.10;98.30;;;;;;8391586;28;19921;-74
2022/04/15 04:43:22;;;;;;;;;;;11.10;98.40;;;;;;8385341;28;19920;-74
2022/04/15 04:47:24;;;;;;;;;;;11.10;98.30;;;;;;8384045;28;19921;-74
2022/04/15 04:51:25;;;;;;;;;;;11.20;98.50;;;;;;8392741;28;19931;-73
2022/04/15 04:55:27;;;;;;;;;;;11.10;98.50;;;;;;8392828;28;19954;-73
2022/04/15 04:59:31;;;;;;;;;;;11.10;98.40;;;;;;8398458;28;19927;-73
2022/04/15 05:03:32;;;;;;;;;;;11.00;98.40;;;;;;8394870;28;19920;-73
2022/04/15 05:07:34;;;;;;;;;;;11.00;98.60;;;;;;8401852;28;19943;-73
2022/04/15 05:11:41;;;;;;;;;;;11.00;98.80;;;;;;8384301;28;19921;-73
2022/04/15 05:15:42;;;;;;;;;;;11.00;99.00;;;;;;8385290;28;19921;-73
2022/04/15 05:19:45;;;;;;;;;;;10.90;98.90;;;;;;8387321;28;20380;-73
2022/04/15 05:23:46;;;;;;;;;;;10.90;99.00;;;;;;8381913;28;19920;-73
2022/04/15 05:27:48;;;;;;;;;;;10.90;98.80;;;;;;8384767;28;19924;-73
2022/04/15 05:31:50;;;;;;;;;;;10.90;99.10;;;;;;8385909;28;19931;-74
2022/04/15 05:35:51;;;;;;;;;;;10.90;99.50;;;;;;8398560;28;20368;-74
2022/04/15 05:40:11;;;;;;;;;;;10.90;99.10;;;;;;8391163;28;19948;-73
2022/04/15 05:44:14;;;;;;;;;;;10.90;99.20;;;;;;8389868;28;20283;-74
2022/04/15 05:48:16;;;;;;;;;;;10.90;99.50;;;;;;8393995;28;19947;-73
2022/04/15 05:52:17;;;;;;;;;;;10.90;99.70;;;;;;8386931;28;19954;-73
2022/04/15 05:56:19;;;;;;;;;;;10.90;99.30;;;;;;8377090;28;19925;-74
2022/04/15 06:00:22;;;;;;;;;;;10.90;99.40;;;;;;8385454;28;19927;-74
2022/04/15 06:04:23;;;;;;;;;;;10.90;99.50;;;;;;8387984;28;19920;-74
2022/04/15 06:08:25;;;;;;;;;;;11.00;99.60;;;;;;8389051;28;19927;-73
2022/04/15 06:12:57;;;;;;;;;;;11.00;99.90;;;;;;8394434;28;19943;-74
2022/04/15 06:16:59;;;;;;;;;;;11.10;99.90;;;;;;8387518;28;19966;-74
2022/04/15 06:21:01;;;;;;;;;;;11.10;99.90;;;;;;8386765;28;19920;-74
2022/04/15 06:25:03;;;;;;;;;;;11.20;99.90;;;;;;8388919;28;20259;-73
2022/04/15 06:29:05;;;;;;;;;;;11.20;99.90;;;;;;8391382;28;19920;-74
2022/04/15 06:33:08;;;;;;;;;;;11.20;99.90;;;;;;8399035;28;19920;-74
2022/04/15 06:37:10;;;;;;;;;;;11.20;99.90;;;;;;8386296;28;19966;-74
2022/04/15 06:41:12;;;;;;;;;;;11.30;99.90;;;;;;8384477;28;19931;-74
2022/04/15 06:45:14;;;;;;;;;;;11.40;99.90;;;;;;8384026;28;19920;-73
2022/04/15 06:49:16;;;;;;;;;;;11.40;99.90;;;;;;8388412;28;20387;-74
2022/04/15 06:53:17;;;;;;;;;;;11.40;99.90;;;;;;8388550;28;19925;-73
2022/04/15 06:57:20;;;;;;;;;;;11.40;99.90;;;;;;8390918;28;19927;-74
2022/04/15 07:01:23;;;;;;;;;;;11.40;99.90;;;;;;8419694;28;20288;-74
2022/04/15 07:05:25;;;;;;;;;;;11.50;99.90;;;;;;8380992;28;19927;-73
2022/04/15 07:09:27;;;;;;;;;;;11.50;99.90;;;;;;8381483;28;19994;-73
2022/04/15 07:13:28;;;;;;;;;;;11.70;99.90;;;;;;8392468;28;19933;-74
2022/04/15 07:17:30;;;;;;;;;;;11.90;99.90;;;;;;8384725;28;20529;-74
2022/04/15 07:21:32;;;;;;;;;;;12.10;99.90;;;;;;8383434;28;19925;-74
2022/04/15 07:25:34;;;;;;;;;;;12.20;99.90;;;;;;8379263;28;20292;-73
2022/04/15 07:29:36;;;;;;;;;;;12.20;99.90;;;;;;8390393;28;19957;-74
2022/04/15 07:33:38;;;;;;;;;;;12.30;99.90;;;;;;8395109;28;19924;-74
2022/04/15 07:37:40;;;;;;;;;;;12.30;99.90;;;;;;8389012;28;19928;-74
2022/04/15 07:41:42;;;;;;;;;;;12.40;99.90;;;;;;8390986;28;19920;-74
2022/04/15 07:45:44;;;;;;;;;;;12.50;99.90;;;;;;8382146;28;19921;-74
2022/04/15 07:49:45;;;;;;;;;;;12.50;99.90;;;;;;8423575;28;20015;-74
2022/04/15 07:53:47;;;;;;;;;;;12.60;99.90;;;;;;8383070;28;20382;-74
2022/04/15 07:57:49;;;;;;;;;;;12.60;99.90;;;;;;8391006;28;19924;-74
2022/04/15 08:01:50;;;;;;;;;;;12.70;99.90;;;;;;8404571;28;19927;-74
2022/04/15 08:05:53;;;;;;;;;;;12.80;99.90;;;;;;8398674;28;19942;-74
2022/04/15 08:09:54;;;;;;;;;;;12.80;99.90;;;;;;8395361;28;19931;-73
2022/04/15 08:13:56;;;;;;;;;;;12.80;99.90;;;;;;8390708;28;19920;-73
2022/04/15 08:17:58;;;;;;;;;;;12.80;99.90;;;;;;8388572;28;19936;-74
2022/04/15 08:22:00;;;;;;;;;;;12.90;99.90;;;;;;8395228;28;20375;-74
2022/04/15 08:26:01;;;;;;;;;;;13.00;99.90;;;;;;8397386;28;19928;-74
2022/04/15 08:30:03;;;;;;;;;;;13.10;99.90;;;;;;8389681;28;19936;-74
2022/04/15 08:34:06;;;;;;;;;;;13.20;99.90;;;;;;8386707;28;19924;-74
2022/04/15 08:38:08;;;;;;;;;;;13.30;99.90;;;;;;8405852;28;19920;-74
2022/04/15 08:42:09;;;;;;;;;;;13.40;99.90;;;;;;8384641;28;19920;-74
2022/04/15 08:46:11;;;;;;;;;;;13.50;99.90;;;;;;8436096;28;20370;-74
2022/04/15 08:50:14;;;;;;;;;;;13.60;99.90;;;;;;8404837;28;20271;-74
2022/04/15 08:54:17;;;;;;;;;;;13.50;99.90;;;;;;8398814;28;19928;-73
2022/04/15 08:58:19;;;;;;;;;;;13.40;99.90;;;;;;8387837;28;20371;-74
2022/04/15 09:02:31;;;;;;;;;;;13.30;99.90;;;;;;8390704;28;19921;-73
2022/04/15 09:06:32;;;;;;;;;;;13.40;99.90;;;;;;8387676;28;19978;-74
2022/04/15 09:10:35;;;;;;;;;;;13.50;99.90;;;;;;8389913;28;19927;-74
2022/04/15 09:14:38;;;;;;;;;;;13.70;99.90;;;;;;8388250;28;19926;-73
2022/04/15 09:18:40;;;;;;;;;;;13.80;99.90;;;;;;8393357;28;19921;-74
2022/04/15 09:22:44;;;;;;;;;;;14.00;99.90;;;;;;8391751;28;19927;-74
2022/04/15 09:26:48;;;;;;;;;;;14.30;99.90;;;;;;8393623;28;19920;-74
2022/04/15 09:30:50;;;;;;;;;;;14.50;99.90;;;;;;8391313;28;19981;-74
2022/04/15 09:34:57;;;;;;;;;;;14.50;99.90;;;;;;8400530;28;19920;-74
2022/04/15 09:39:01;;;;;;;;;;;14.60;99.90;;;;;;8385045;28;19921;-74
2022/04/15 09:43:06;;;;;;;;;;;14.70;99.90;;;;;;8413255;28;19931;-74
2022/04/15 09:47:09;;;;;;;;;;;14.80;99.90;;;;;;8389673;28;19924;-74
2022/04/15 09:51:17;;;;;;;;;;;15.00;99.90;;;;;;8392587;28;19928;-73
2022/04/15 09:55:20;;;;;;;;;;;15.10;99.90;;;;;;8395985;28;19924;-74
2022/04/15 09:59:23;;;;;;;;;;;15.30;99.90;;;;;;8391200;28;19920;-74
2022/04/15 10:03:25;;;;;;;;;;;15.40;99.90;;;;;;8400153;28;20364;-74
2022/04/15 10:07:28;;;;;;;;;;;15.50;99.90;;;;;;8401107;28;19920;-74
2022/04/15 10:11:34;;;;;;;;;;;15.60;99.90;;;;;;8379686;28;19943;-74
2022/04/15 10:15:40;;;;;;;;;;;15.70;99.90;;;;;;8378161;28;19927;-74
2022/04/15 10:19:43;;;;;;;;;;;15.80;99.90;;;;;;8392763;28;19951;-73
2022/04/15 10:23:44;;;;;;;;;;;15.90;99.90;;;;;;8414610;28;20316;-74
2022/04/15 10:27:46;;;;;;;;;;;16.00;99.90;;;;;;8388722;28;19929;-73
2022/04/15 10:31:52;;;;;;;;;;;16.10;99.90;;;;;;8385987;28;19921;-74
2022/04/15 10:35:58;;;;;;;;;;;16.20;99.90;;;;;;8388013;28;19936;-74
2022/04/15 10:39:59;;;;;;;;;;;16.20;99.90;;;;;;8395597;28;19920;-74
2022/04/15 10:44:03;;;;;;;;;;;16.30;99.90;;;;;;8405760;28;19928;-74
2022/04/15 10:48:11;;;;;;;;;;;16.40;99.90;;;;;;8388333;28;19928;-74
2022/04/15 10:52:17;;;;;;;;;;;16.50;99.90;;;;;;8380466;28;19985;-74
2022/04/15 10:56:21;;;;;;;;;;;16.70;99.90;;;;;;8385500;28;19978;-73
2022/04/15 11:04:47;;;;;;;;;;;16.90;99.90;;;;;;8383544;28;20295;-74
2022/04/15 11:08:51;;;;;;;;;;;16.90;99.90;;;;;;8388292;28;19920;-74
2022/04/15 11:12:54;;;;;;;;;;;16.90;99.90;;;;;;8389133;28;19936;-74
2022/04/15 11:16:58;;;;;;;;;;;16.90;99.90;;;;;;8393052;28;20391;-74
2022/04/15 11:21:00;;;;;;;;;;;16.90;99.90;;;;;;8385703;28;19920;-74
2022/04/15 11:25:02;;;;;;;;;;;17.10;99.90;;;;;;8396041;28;19920;-74
2022/04/15 11:29:05;;;;;;;;;;;17.10;99.90;;;;;;8385840;28;19928;-74
2022/04/15 11:33:08;;;;;;;;;;;17.10;99.90;;;;;;8390761;28;20422;-74
2022/04/15 11:37:11;;;;;;;;;;;17.10;99.90;;;;;;8385698;28;19920;-74
2022/04/15 11:41:20;;;;;;;;;;;17.10;99.90;;;;;;8389568;28;19924;-74
2022/04/15 11:45:38;;;;;;;;;;;17.10;99.90;;;;;;8394837;28;19981;-74
2022/04/15 11:49:40;;;;;;;;;;;17.20;99.90;;;;;;8405312;28;19927;-74
2022/04/15 11:53:42;;;;;;;;;;;17.20;99.90;;;;;;8390161;28;19928;-74
2022/04/15 11:57:44;;;;;;;;;;;17.10;99.90;;;;;;8399154;28;19935;-74
2022/04/15 12:01:45;;;;;;;;;;;17.00;99.90;;;;;;8404930;28;20387;-73
2022/04/15 12:05:48;;;;;;;;;;;16.80;99.90;;;;;;8396477;28;19921;-74
2022/04/15 12:09:50;;;;;;;;;;;16.80;99.90;;;;;;8387898;28;19920;-74
2022/04/15 12:13:54;;;;;;;;;;;16.70;99.90;;;;;;8393015;28;19928;-74
2022/04/15 12:17:57;;;;;;;;;;;16.80;99.90;;;;;;8379866;28;19978;-74
2022/04/15 12:22:00;;;;;;;;;;;16.80;99.90;;;;;;8383982;28;19921;-74
2022/04/15 12:26:06;;;;;;;;;;;16.90;99.90;;;;;;8389660;28;19928;-74
2022/04/15 12:30:08;;;;;;;;;;;17.00;99.90;;;;;;8379713;28;20377;-70
2022/04/15 12:34:11;;;;;;;;;;;17.20;99.90;;;;;;8389562;28;20364;-71
2022/04/15 12:38:13;;;;;;;;;;;17.40;99.90;;;;;;8389235;28;19942;-70
2022/04/15 12:42:26;;;;;;;;;;;17.60;99.90;;;;;;8389199;28;20351;-70
2022/04/15 12:46:28;;;;;;;;;;;17.70;99.90;;;;;;8388689;28;19920;-70
2022/04/15 12:50:33;;;;;;;;;;;17.70;99.90;;;;;;8389030;28;19924;-71
2022/04/15 12:54:53;;;;;;;;;;;17.70;99.90;;;;;;8383915;28;20380;-71
2022/04/15 12:58:56;;;;;;;;;;;17.60;99.90;;;;;;8392130;28;19961;-71
2022/04/15 13:02:57;;;;;;;;;;;17.50;99.90;;;;;;8390099;28;20626;-71
2022/04/15 13:06:59;;;;;;;;;;;17.50;99.90;;;;;;8389764;28;19928;-71
2022/04/15 13:11:00;;;;;;;;;;;17.50;99.90;;;;;;8391103;28;19920;-71
2022/04/15 13:15:08;;;;;;;;;;;17.50;99.90;;;;;;8383415;28;19920;-71
2022/04/15 13:19:09;;;;;;;;;;;17.40;99.90;;;;;;8394322;28;19928;-70
2022/04/15 13:23:11;;;;;;;;;;;17.40;99.90;;;;;;8391789;28;19942;-71
2022/04/15 13:27:13;;;;;;;;;;;17.50;99.90;;;;;;8377371;28;20364;-70
2022/04/15 13:31:14;;;;;;;;;;;17.60;99.90;;;;;;8377104;28;20080;-70
2022/04/15 13:35:16;;;;;;;;;;;17.70;99.90;;;;;;8375364;28;19921;-70
2022/04/15 13:39:18;;;;;;;;;;;17.90;99.90;;;;;;8384486;28;19924;-71
2022/04/15 13:43:20;;;;;;;;;;;18.10;99.90;;;;;;8384467;28;20274;-71
2022/04/15 13:47:22;;;;;;;;;;;18.20;99.90;;;;;;8372867;28;19920;-71
2022/04/15 13:51:23;;;;;;;5.22;2.78;;;18.30;99.90;;;;;;8371521;28;20311;-71
2022/04/15 13:59:45;;;;;;;5.07;3.20;;;18.60;99.90;;;;;;8379250;28;20067;-71
2022/04/15 14:03:47;;;;;;;5.50;3.22;;;18.80;99.90;;;;;;8387172;28;20110;-71
2022/04/15 14:07:49;;;;;;;5.70;3.33;;;19.00;99.90;;;;;;8394299;28;20541;-71
2022/04/15 14:11:51;;;;;;;5.20;3.28;;;19.10;99.90;;;;;;8379083;28;20410;-71
2022/04/15 14:15:53;;;;;;;7.75;4.10;;;18.90;99.90;;;;;;8388142;28;20052;-71
2022/04/15 14:19:55;;;;;;;;;;;18.60;99.90;;;;;;8384835;28;20040;-71
2022/04/15 14:23:56;;;;;;;;;;;18.30;99.90;;;;;;8389650;28;19919;-71
2022/04/15 14:27:58;;;;;;;;;;;18.00;99.90;;;;;;8390001;28;19920;-71
2022/04/15 14:32:03;;;;;;;;;;;17.90;99.90;;;;;;8388510;28;19928;-71
2022/04/15 14:36:05;;;;;;;;;;;17.70;99.90;;;;;;8377010;28;19928;-71
2022/04/15 14:40:07;;;;;;;;;;;17.50;99.90;;;;;;8389263;28;19920;-71
2022/04/15 14:44:09;;;;;;;;;;;17.40;99.90;;;;;;8377399;28;19928;-71
2022/04/15 14:48:10;;;;;;;;;;;17.30;99.90;;;;;;8386808;28;19924;-70
2022/04/15 14:52:12;;;;;;;;;;;17.10;99.90;;;;;;8388038;28;19928;-70
2022/04/15 14:56:14;;;;;;;;;;;17.10;99.90;;;;;;8382838;28;19931;-71
2022/04/15 15:00:18;;;;;;;;;;;17.00;99.90;;;;;;8393600;28;19935;-70
2022/04/15 15:04:22;;;;;;;;;;;16.90;99.90;;;;;;8392335;28;20330;-71
2022/04/15 15:08:45;;;;;;;;;;;16.70;99.90;;;;;;8388896;28;19928;-71
2022/04/15 15:12:48;;;;;;;;;;;16.50;99.90;;;;;;8386614;28;19924;-70
2022/04/15 15:16:51;;;;;;;;;;;16.40;99.90;;;;;;8378814;28;19928;-70
2022/04/15 15:20:53;;;;;;;;;;;16.20;99.90;;;;;;8366881;28;20364;-70
2022/04/15 15:33:35;;;;;;;;;;;16.30;99.90;;;;;;8364968;28;19924;-70
2022/04/15 15:37:37;;;;;;;;;;;16.30;99.90;;;;;;8361430;28;19958;-71
2022/04/15 15:41:42;;;;;;;;;;;16.30;99.90;;;;;;8374844;28;19928;-70
2022/04/15 15:45:44;;;;;;;;;;;16.40;99.90;;;;;;8369956;28;19928;-70
2022/04/15 15:49:45;;;;;;;;;;;16.40;99.90;;;;;;8389890;28;20379;-70
2022/04/15 15:53:47;;;;;;;;;;;16.30;99.90;;;;;;8374073;28;19927;-70
2022/04/15 15:57:49;;;;;;;;;;;16.20;99.90;;;;;;8382183;28;19928;-70
2022/04/15 16:01:51;;;;;;;;;;;16.20;99.90;;;;;;8379864;28;20276;-70
2022/04/15 16:06:11;;;;;;;;;;;16.20;99.90;;;;;;8422040;28;19924;-70
2022/04/15 16:10:13;;;;;;;;;;;16.00;99.90;;;;;;8382657;28;20421;-70
2022/04/15 16:14:15;;;;;;;;;;;16.00;99.90;;;;;;8392897;28;19936;-70
2022/04/15 16:18:17;;;;;;;;;;;16.00;99.90;;;;;;8387862;28;20334;-71
2022/04/15 16:22:18;;;;;;;;;;;16.00;99.90;;;;;;8381533;28;19939;-71
2022/04/15 16:26:20;;;;;;;;;;;16.00;99.90;;;;;;8392464;28;19924;-71
2022/04/15 16:30:22;;;;;;;;;;;16.00;99.90;;;;;;8375460;28;19940;-71
2022/04/15 16:34:23;;;;;;;;;;;16.00;99.90;;;;;;8380160;28;19925;-70
2022/04/15 16:38:25;;;;;;;;;;;16.10;99.90;;;;;;8394980;28;20419;-71
2022/04/15 16:42:27;;;;;;;;;;;16.00;99.90;;;;;;8386461;28;19932;-70
2022/04/15 16:46:28;;;;;;;;;;;15.80;99.90;;;;;;8360591;28;20295;-71
2022/04/15 16:50:30;;;;;;;;;;;15.70;99.90;;;;;;8379871;28;19928;-71
2022/04/15 16:58:52;;;;;;;;;;;15.50;99.90;;;;;;8392126;28;19924;-71
2022/04/15 17:02:56;;;;;;;;;;;15.40;99.90;;;;;;8392211;28;19928;-70
2022/04/15 17:06:58;;;;;;;;;;;15.30;99.90;;;;;;8398201;28;19932;-70
2022/04/15 17:11:00;;;;;;;;;;;15.20;99.90;;;;;;8397024;28;19924;-70
2022/04/15 17:15:02;;;;;;;;;;;15.10;99.90;;;;;;8404153;28;19943;-71
2022/04/15 17:19:04;;;;;;;;;;;14.90;99.90;;;;;;8388553;28;19947;-71
2022/04/15 17:23:05;;;;;;;;;;;14.70;99.90;;;;;;8430431;27;19929;-70
2022/04/15 17:27:07;;;;;;;;;;;14.60;99.90;;;;;;8389720;28;19935;-71
2022/04/15 17:31:09;;;;;;;;;;;14.50;99.90;;;;;;8384282;28;19928;-71
2022/04/15 17:35:12;;;;;;;;;;;14.30;99.90;;;;;;8377655;28;20383;-70
2022/04/15 17:39:13;;;;;;;;;;;14.20;99.90;;;;;;8379916;28;20387;-71
2022/04/15 17:43:18;;;;;;;;;;;14.10;99.90;;;;;;8392753;28;19924;-70
2022/04/15 17:47:20;;;;;;;;;;;13.90;99.90;;;;;;8370795;28;19981;-70
2022/04/15 17:51:21;;;;;;;;;;;13.90;99.90;;;;;;8379895;28;19927;-70
2022/04/15 17:55:23;;;;;;;;;;;13.80;99.90;;;;;;8374005;28;19929;-70
2022/04/15 17:59:25;;;;;;;;;;;13.70;99.90;;;;;;8396199;28;19932;-70
2022/04/15 18:03:28;;;;;;;;;;;13.70;99.90;;;;;;8380638;28;19927;-70
2022/04/15 18:07:29;;;;;;;;;;;13.70;99.90;;;;;;8380412;28;20367;-70
2022/04/15 18:11:31;;;;;;;;;;;13.60;99.80;;;;;;8379526;28;19920;-70
2022/04/15 18:15:34;;;;;;;;;;;13.60;99.70;;;;;;8392072;28;20370;-70
2022/04/15 18:19:36;;;;;;;;;;;13.50;99.60;;;;;;8387377;28;20398;-70
2022/04/15 18:23:41;;;;;;;;;;;13.40;99.60;;;;;;8383377;28;19920;-70
2022/04/15 18:27:42;;;;;;;;;;;13.30;99.50;;;;;;8384621;28;20399;-70
2022/04/15 18:31:44;;;;;;;;;;;13.20;99.50;;;;;;8386162;28;20279;-70
2022/04/15 18:35:46;;;;;;;;;;;13.20;99.50;;;;;;8393546;28;19925;-70
2022/04/15 18:39:47;;;;;;;;;;;13.20;99.40;;;;;;8392513;28;19926;-69
2022/04/15 18:43:54;;;;;;;;;;;13.20;99.30;;;;;;8399592;28;20372;-70
2022/04/15 18:52:34;;;;;;;;;;;13.20;99.40;;;;;;8376054;28;19981;-70
2022/04/15 18:52:39;;;;;;;;;;;13.20;99.40;;;;;;8366347;28;19932;-70
2022/04/15 18:56:43;;;;;;;;;;;13.20;99.30;;;;;;8373233;28;20360;-70
2022/04/15 19:00:45;;;;;;;;;;;13.10;99.30;;;;;;8366654;28;20281;-70
2022/04/15 19:04:47;;;;;;;;;;;13.10;99.40;;;;;;8371795;28;19928;-70
2022/04/15 19:08:48;;;;;;;;;;;13.10;99.30;;;;;;8366508;28;20700;-70
2022/04/15 19:12:53;;;;;;;;;;;13.10;99.30;;;;;;8369998;28;19999;-70
2022/04/15 19:16:54;;;;;;;;;;;13.10;99.30;;;;;;8369776;28;20367;-70
2022/04/15 19:20:57;;;;;;;;;;;13.10;99.30;;;;;;8397676;28;20036;-70
2022/04/15 19:24:58;;;;;;;;;;;13.10;99.30;;;;;;8369326;28;19928;-70
2022/04/15 19:29:00;;;;;;;;;;;13.10;99.30;;;;;;8373947;28;19921;-70
2022/04/15 19:33:02;;;;;;;;;;;13.10;99.50;;;;;;8371872;28;20360;-70
2022/04/15 19:37:03;;;;;;;;;;;13.00;99.30;;;;;;8368772;28;19920;-70
2022/04/15 19:41:07;;;;;;;;;;;13.00;99.30;;;;;;8375315;28;19928;-70
2022/04/15 19:45:09;;;;;;;;;;;12.90;99.30;;;;;;8369127;28;19935;-70
2022/04/15 19:49:11;;;;;;;;;;;12.80;99.30;;;;;;8388418;28;19920;-70
2022/04/15 19:53:13;;;;;;;;;;;12.80;99.40;;;;;;8392186;28;19989;-70
2022/04/15 20:01:55;;;;;;;;;;;12.80;99.40;;;;;;8375008;28;20376;-70
2022/04/15 20:05:58;;;;;;;;;;;12.70;99.50;;;;;;8378768;28;19942;-70
2022/04/15 20:10:00;;;;;;;;;;;12.70;99.40;;;;;;8399021;28;19920;-70
2022/04/15 20:14:02;;;;;;;;;;;12.70;99.50;;;;;;8381541;28;19920;-70
2022/04/15 20:18:04;;;;;;;;;;;12.70;99.40;;;;;;8379403;28;19920;-70
2022/04/15 20:22:06;;;;;;;;;;;12.70;99.40;;;;;;8384575;28;19921;-70
2022/04/15 20:26:12;;;;;;;;;;;12.60;99.40;;;;;;8377822;28;19920;-70
2022/04/15 20:30:14;;;;;;;;;;;12.60;99.90;;;;;;8387493;28;19927;-70
2022/04/15 20:34:15;;;;;;;;;;;12.50;99.50;;;;;;8381529;28;20367;-70
2022/04/15 20:38:17;;;;;;;;;;;12.40;99.50;;;;;;8388121;28;20389;-70
2022/04/15 20:42:19;;;;;;;;;;;12.40;99.50;;;;;;8415865;28;19928;-70
2022/04/15 20:46:21;;;;;;;;;;;12.50;99.70;;;;;;8384994;28;19966;-70
2022/04/15 20:50:23;;;;;;;;;;;12.50;99.70;;;;;;8378653;28;19924;-70
2022/04/15 20:54:24;;;;;;;;;;;12.40;99.70;;;;;;8387759;28;19920;-70
2022/04/15 20:58:41;;;;;;;;;;;12.40;99.70;;;;;;8381859;28;20362;-70
2022/04/15 21:02:44;;;;;;;;;;;12.40;99.70;;;;;;8390194;28;19935;-70
2022/04/15 21:06:45;;;;;;;;;;;12.40;99.70;;;;;;8366445;28;19920;-70
2022/04/15 21:10:47;;;;;;;;;;;12.30;99.70;;;;;;8381544;28;19920;-70
2022/04/15 21:14:50;;;;;;;;;;;12.30;99.90;;;;;;8385276;28;19950;-70
2022/04/15 21:18:52;;;;;;;;;;;12.30;99.80;;;;;;8372609;28;19920;-70
2022/04/15 21:22:53;;;;;;;;;;;12.20;99.90;;;;;;8381362;28;19931;-71
2022/04/15 21:26:57;;;;;;;;;;;12.20;99.90;;;;;;8389804;28;19921;-70
2022/04/15 21:30:59;;;;;;;;;;;12.20;99.90;;;;;;8390385;28;19927;-70
2022/04/15 21:35:00;;;;;;;;;;;12.20;99.90;;;;;;8377033;28;19987;-70
2022/04/15 21:39:03;;;;;;;;;;;12.20;99.90;;;;;;8381163;28;19931;-70
2022/04/15 21:43:06;;;;;;;;;;;12.20;99.90;;;;;;8380776;28;19921;-70
2022/04/15 21:47:07;;;;;;;;;;;12.20;99.90;;;;;;8380917;28;19929;-70
2022/04/15 21:55:30;;;;;;;;;;;12.10;99.90;;;;;;8374115;28;19935;-70
2022/04/15 21:59:35;;;;;;;;;;;12.10;99.90;;;;;;8372792;28;19921;-70
2022/04/15 22:03:39;;;;;;;;;;;12.00;99.90;;;;;;8380119;28;20398;-70
2022/04/15 22:07:41;;;;;;;;;;;12.00;99.90;;;;;;8390395;28;19925;-70
2022/04/15 22:11:43;;;;;;;;;;;11.90;99.90;;;;;;8382229;28;19927;-70
2022/04/15 22:15:45;;;;;;;;;;;11.90;99.90;;;;;;8384670;28;19920;-70
2022/04/15 22:19:51;;;;;;;;;;;11.90;99.90;;;;;;8389159;28;19925;-70
2022/04/15 22:23:53;;;;;;;;;;;11.80;99.90;;;;;;8364816;28;20563;-71
2022/04/15 22:27:55;;;;;;;;;;;11.80;99.90;;;;;;8379401;28;20015;-70
2022/04/15 22:31:58;;;;;;;;;;;11.70;99.90;;;;;;8378820;28;19924;-70
2022/04/15 22:36:04;;;;;;;;;;;11.70;99.90;;;;;;8379160;28;19975;-70
2022/04/15 22:40:06;;;;;;;;;;;11.60;99.90;;;;;;8388453;28;19928;-70
2022/04/15 22:44:27;;;;;;;;;;;11.60;99.90;;;;;;8370783;28;19936;-70
2022/04/15 22:48:29;;;;;;;;;;;11.60;99.90;;;;;;8381116;28;19924;-70
2022/04/15 22:52:31;;;;;;;;;;;11.50;99.90;;;;;;8387303;28;19924;-70
2022/04/15 23:00:54;;;;;;;;;;;11.50;99.90;;;;;;8377448;28;20336;-70
2022/04/15 23:04:58;;;;;;;;;;;11.50;99.90;;;;;;8374093;28;19924;-70
2022/04/15 23:08:59;;;;;;;;;;;11.40;99.90;;;;;;8378834;28;19920;-70
2022/04/15 23:13:03;;;;;;;;;;;11.40;99.90;;;;;;8376664;28;19996;-70
2022/04/15 23:17:05;;;;;;;;;;;11.40;99.90;;;;;;8380290;28;19920;-70
2022/04/15 23:21:06;;;;;;;;;;;11.30;99.90;;;;;;8395243;28;20118;-70
2022/04/15 23:25:08;;;;;;;;;;;11.30;99.90;;;;;;8381078;28;19932;-70
2022/04/15 23:29:10;;;;;;;;;;;11.30;99.90;;;;;;8381971;28;19934;-70
2022/04/15 23:33:12;;;;;;;;;;;11.20;99.90;;;;;;8387177;28;19939;-71
2022/04/15 23:37:14;;;;;;;;;;;11.20;99.90;;;;;;8387338;28;19921;-70
2022/04/15 23:41:19;;;;;;;;;;;11.10;99.90;;;;;;8388471;28;20276;-71
2022/04/15 23:45:20;;;;;;;;;;;11.10;99.90;;;;;;8401752;28;20320;-70
2022/04/15 23:49:22;;;;;;;;;;;11.00;99.90;;;;;;8394393;28;19928;-70
2022/04/15 23:53:24;;;;;;;;;;;11.00;99.90;;;;;;8378246;28;19935;-70
2022/04/15 23:57:25;;;;;;;;;;;11.00;99.90;;;;;;8377807;28;19927;-70
